Time;durP1;ratioP1;P1;durP2;ratioP2;P2;SDS_P1;SDS_P2;PMS_P1;PMS_P2;Temp;Humidity;BMP_temperature;BMP_pressure;BME280_temperature;BME280_humidity;BME280_pressure;Samples;Min_cycle;Max_cycle;Signal;HPM_P1;HPM_P2
2023/11/28 00:00:48;;;;;;;;;94.00;70.00;;;;;2.04;100.00;97895.84;6277177;20;3651337;-43
2023/11/28 00:03:18;;;;;;;;;108.00;87.33;;;;;1.68;100.00;97896.91;6309917;20;3702370;-43
2023/11/28 00:05:48;;;;;;;;;106.67;90.00;;;;;1.73;100.00;97893.06;6278900;20;3688945;-44
2023/11/28 00:08:20;;;;;;;;;99.67;77.00;;;;;1.89;100.00;97887.78;6279500;20;3676404;-44
2023/11/28 00:10:50;;;;;;;;;166.50;149.50;;;;;1.95;100.00;97878.69;6313426;20;4498280;-45
2023/11/28 00:13:20;;;;;;;;;87.33;70.00;;;;;2.00;100.00;97883.69;6280911;20;3623187;-45
2023/11/28 00:15:48;;;;;;;;;65.50;51.00;;;;;1.78;100.00;97870.81;6309174;20;2498353;-43
2023/11/28 00:18:18;;;;;;;;;94.00;72.00;;;;;1.91;100.00;97874.50;6280181;20;3659690;-45
2023/11/28 00:20:48;;;;;;;;;79.33;59.67;;;;;1.68;100.00;97870.47;6310946;20;3640936;-43
2023/11/28 00:23:17;;;;;;;;;71.00;57.00;;;;;1.87;100.00;97878.22;6309510;20;2874359;-43
2023/11/28 00:25:46;;;;;;;;;93.33;72.33;;;;;1.99;100.00;97877.56;6278269;20;3653415;-46
2023/11/28 00:28:16;;;;;;;;;91.33;70.00;;;;;2.06;100.00;97871.00;6308993;20;3660665;-44
2023/11/28 00:30:46;;;;;;;;;98.00;75.67;;;;;1.97;100.00;97867.09;6278064;20;3649269;-44
2023/11/28 00:33:16;;;;;;;;;98.67;73.67;;;;;1.94;100.00;97864.56;6311038;20;3667917;-43
2023/11/28 00:35:46;;;;;;;;;104.67;85.67;;;;;2.08;100.00;97865.59;6278129;20;3688892;-44
2023/11/28 00:38:18;;;;;;;;;99.00;76.00;;;;;1.91;100.00;97856.81;6276301;20;3676350;-45
2023/11/28 00:40:48;;;;;;;;;87.00;67.67;;;;;1.98;100.00;97855.53;6311025;20;3628455;-44
2023/11/28 00:43:18;;;;;;;;;113.00;97.00;;;;;2.02;100.00;97836.84;6310166;20;3690004;-44
2023/11/28 00:45:48;;;;;;;;;79.00;62.00;;;;;1.97;100.00;97837.97;6277444;20;3627408;-43
2023/11/28 00:48:17;;;;;;;;;79.50;60.50;;;;;1.93;100.00;97832.94;6308761;20;2876347;-44
2023/11/28 00:50:47;;;;;;;;;92.00;68.00;;;;;2.00;100.00;97828.13;6279042;20;3642998;-45
2023/11/28 00:53:17;;;;;;;;;131.33;103.67;;;;;2.04;100.00;97832.31;6310498;20;3720189;-45
2023/11/28 00:55:47;;;;;;;;;83.00;62.00;;;;;2.16;100.00;97824.53;6279346;20;3656014;-43
2023/11/28 00:58:17;;;;;;;;;139.75;117.25;;;;;2.22;100.00;97823.31;6305747;20;4474259;-44
2023/11/28 01:00:45;;;;;;;;;211.00;162.50;;;;;2.20;100.00;97812.81;6304466;20;1954460;-47
2023/11/28 01:03:21;;;;;;;;;118.50;100.25;;;;;2.55;100.00;97816.97;6279258;20;3703567;-44
2023/11/28 01:05:51;;;;;;;;;102.67;83.67;;;;;2.35;100.00;97804.94;6310257;20;3690858;-44
2023/11/28 01:08:21;;;;;;;;;126.00;101.75;;;;;2.20;100.00;97801.38;6283610;20;3711701;-43
2023/11/28 01:10:51;;;;;;;;;76.33;57.67;;;;;2.06;100.00;97801.31;6315715;20;2883943;-44
2023/11/28 01:13:21;;;;;;;;;86.33;65.00;;;;;2.22;100.00;97790.69;6315072;20;3651293;-43
2023/11/28 01:15:50;;;;;;;;;78.33;57.00;;;;;2.09;100.00;97788.75;6314702;20;3623186;-43
2023/11/28 01:18:20;;;;;;;;;69.33;52.67;;;;;1.74;100.00;97788.97;6315293;20;2878468;-44
2023/11/28 01:20:48;;;;;;;;;61.00;47.00;;;;;1.58;100.00;97771.41;6314008;20;2500354;-44
2023/11/28 01:23:17;;;;;;;;;70.50;52.50;;;;;1.68;100.00;97767.31;6281701;20;2888903;-44
2023/11/28 01:25:46;;;;;;;;;68.00;54.00;;;;;1.89;100.00;97759.94;6281824;20;2858584;-45
2023/11/28 01:28:16;;;;;;;;;63.67;48.00;;;;;1.78;100.00;97747.31;6284134;20;2868025;-44
2023/11/28 01:30:46;;;;;;;;;74.67;55.67;;;;;1.95;100.00;97739.28;6315747;20;2891028;-44
2023/11/28 01:33:15;;;;;;;;;60.50;47.00;;;;;1.73;100.00;97739.63;6313396;20;2859647;-43
2023/11/28 01:35:43;;;;;;;;;58.00;46.50;;;;;1.89;100.00;97734.31;6283821;20;2875391;-44
2023/11/28 01:38:13;;;;;;;;;67.33;54.00;;;;;1.90;100.00;97720.16;6283183;20;2867978;-43
2023/11/28 01:40:42;;;;;;;;;60.50;50.00;;;;;2.22;100.00;97728.00;6315555;20;2859820;-46
2023/11/28 01:43:24;;;;;;;;;60.00;46.33;;;;;2.32;100.00;97734.47;6280947;20;3597179;-44
2023/11/28 01:45:53;;;;;;;;;61.50;50.00;;;;;2.27;100.00;97727.75;6278574;20;2497220;-47
2023/11/28 01:48:22;;;;;;;;;67.50;54.00;;;;;2.37;100.00;97711.22;6283227;20;2848230;-46
2023/11/28 01:50:51;;;;;;;;;61.00;49.00;;;;;2.28;100.00;97705.59;6279463;20;2500272;-45
2023/11/28 01:53:21;;;;;;;;;57.00;47.00;;;;;2.24;100.00;97697.00;6280433;20;2856527;-45
2023/11/28 01:55:52;;;;;;;;;57.50;43.50;;;;;2.22;100.00;97693.59;6281919;20;2859818;-44
2023/11/28 01:58:22;;;;;;;;;52.00;43.00;;;;;2.27;100.00;97685.38;6278028;20;2841935;-46
2023/11/28 02:00:51;;;;;;;;;59.00;46.00;;;;;2.75;100.00;97672.72;6280861;20;2877623;-45
2023/11/28 02:03:21;;;;;;;;;51.50;42.00;;;;;2.91;100.00;97664.66;6311725;20;2848279;-44
2023/11/28 02:05:50;;;;;;;;;48.00;44.50;;;;;2.62;100.00;97654.06;6280823;20;2867551;-46
2023/11/28 02:08:19;;;;;;;;;59.50;45.50;;;;;2.00;100.00;97653.44;6282703;20;2859196;-45
2023/11/28 02:10:49;;;;;;;;;54.67;41.67;;;;;2.04;100.00;97649.69;6283793;20;2874352;-46
2023/11/28 02:13:34;;;;;;;;;51.00;44.50;;;;;2.15;100.00;97640.16;6309555;20;2490905;-45
2023/11/28 02:16:12;;;;;;;;;52.50;42.50;;;;;1.97;100.00;97641.25;6282180;20;2864973;-47
2023/11/28 02:18:43;;;;;;;;;49.50;42.00;;;;;1.96;100.00;97637.75;6284520;20;2859747;-47
2023/11/28 02:21:14;;;;;;;;;52.00;44.50;;;;;1.95;100.00;97633.44;6281071;20;2858619;-45
2023/11/28 02:23:44;;;;;;;;;48.67;40.00;;;;;2.18;100.00;97637.31;6282547;20;2859705;-45
2023/11/28 02:26:25;;;;;;;;;49.67;43.00;;;;;2.17;100.00;97635.63;6312894;20;2869035;-45
2023/11/28 02:28:56;;;;;;;;;56.00;42.50;;;;;2.00;100.00;97632.28;6312966;20;2862783;-45
2023/11/28 02:31:26;;;;;;;;;50.33;39.33;;;;;2.16;100.00;97614.56;6283143;20;3625266;-47
2023/11/28 02:33:56;;;;;;;;;52.67;45.00;;;;;2.05;100.00;97606.38;6313305;20;2868006;-46
2023/11/28 02:36:25;;;;;;;;;47.50;42.00;;;;;2.09;100.00;97599.97;6314124;20;2854440;-45
2023/11/28 02:38:54;;;;;;;;;47.50;42.50;;;;;2.23;100.00;97597.31;6282206;20;2854460;-45
2023/11/28 02:41:23;;;;;;;;;52.33;41.33;;;;;2.32;100.00;97582.69;6280774;20;3621080;-47
2023/11/28 02:43:53;;;;;;;;;55.33;42.33;;;;;2.46;100.00;97589.78;6313326;20;3621108;-44
2023/11/28 02:46:22;;;;;;;;;50.00;40.00;;;;;2.44;100.00;97578.41;6311872;20;2856567;-43
2023/11/28 02:48:51;;;;;;;;;55.50;46.50;;;;;2.41;100.00;97582.09;6282311;20;2866108;-43
2023/11/28 02:51:21;;;;;;;;;66.00;55.33;;;;;2.51;100.00;97575.28;6278010;20;2872220;-45
2023/11/28 02:53:50;;;;;;;;;64.33;49.33;;;;;2.52;100.00;97571.69;6312864;20;2870167;-45
2023/11/28 02:56:19;;;;;;;;;51.50;42.50;;;;;2.50;100.00;97562.13;6309912;20;2866967;-46
2023/11/28 02:58:50;;;;;;;;;44.00;40.00;;;;;2.72;100.00;97559.81;6282760;20;2856683;-45
2023/11/28 03:01:20;;;;;;;;;50.50;43.00;;;;;2.64;100.00;97556.81;6281147;20;2849295;-43
2023/11/28 03:03:49;;;;;;;;;47.50;39.00;;;;;2.71;100.00;97554.63;6282096;20;2858033;-45
2023/11/28 03:06:19;;;;;;;;;43.33;39.67;;;;;2.70;100.00;97555.56;6280118;20;2854587;-45
2023/11/28 03:08:47;;;;;;;;;48.50;39.00;;;;;2.93;100.00;97552.28;6314060;20;2859687;-44
2023/11/28 03:11:16;;;;;;;;;59.00;48.00;;;;;2.53;100.00;97548.72;6281050;20;2856488;-44
2023/11/28 03:13:46;;;;;;;;;37.67;34.67;;;;;2.71;100.00;97544.84;6280574;20;2864939;-46
2023/11/28 03:16:16;;;;;;;;;47.67;39.00;;;;;2.89;100.00;97541.97;6310573;20;3611703;-45
2023/11/28 03:18:45;;;;;;;;;45.00;38.00;;;;;2.59;100.00;97537.72;6310126;20;2859645;-45
2023/11/28 03:21:14;;;;;;;;;43.00;39.00;;;;;2.54;100.00;97542.47;6281065;20;2855488;-45
2023/11/28 03:23:43;;;;;;;;;49.33;39.00;;;;;2.61;100.00;97541.13;6283100;20;2878510;-43
2023/11/28 03:26:13;;;;;;;;;43.33;38.67;;;;;2.99;100.00;97551.88;6312359;20;2873316;-46
2023/11/28 03:28:43;;;;;;;;;48.00;38.67;;;;;3.07;100.00;97548.72;6308052;20;2871200;-45
2023/11/28 03:31:13;;;;;;;;;49.67;40.00;;;;;2.58;100.00;97547.47;6310792;20;2867030;-44
2023/11/28 03:33:43;;;;;;;;;51.00;43.33;;;;;2.66;100.00;97528.44;6314140;20;3619006;-47
2023/11/28 03:36:18;;;;;;;;;60.50;45.00;;;;;2.94;100.00;97537.25;6311787;20;2872152;-44
2023/11/28 03:38:48;;;;;;;;;66.00;53.00;;;;;2.65;100.00;97521.41;6281352;20;2883732;-44
2023/11/28 03:41:18;;;;;;;;;65.00;50.00;;;;;2.72;100.00;97519.25;6311551;20;2876410;-44
2023/11/28 03:43:48;;;;;;;;;53.33;43.33;;;;;2.62;100.00;97511.88;6311914;20;3616967;-44
2023/11/28 03:46:17;;;;;;;;;58.00;45.50;;;;;2.86;100.00;97505.94;6311263;20;2862779;-44
2023/11/28 03:48:46;;;;;;;;;71.00;55.33;;;;;2.55;100.00;97493.81;6282095;20;2878402;-47
2023/11/28 03:51:15;;;;;;;;;35.50;31.00;;;;;2.71;100.00;97489.22;6311139;20;2854452;-45
2023/11/28 03:53:44;;;;;;;;;58.50;45.00;;;;;2.80;100.00;97493.94;6278633;20;2865054;-46
2023/11/28 03:56:14;;;;;;;;;70.00;55.50;;;;;2.64;100.00;97477.34;6278970;20;2852466;-45
2023/11/28 03:58:42;;;;;;;;;146.50;114.00;;;;;2.93;100.00;97487.84;6273832;20;1969767;-43
2023/11/28 04:01:11;;;;;;;;;51.50;43.00;;;;;2.97;100.00;97489.31;6278344;20;2866949;-44
2023/11/28 04:03:40;;;;;;;;;51.50;43.50;;;;;2.73;100.00;97494.44;6280262;20;2873367;-45
2023/11/28 04:06:10;;;;;;;;;49.67;40.33;;;;;3.12;100.00;97493.59;6279020;20;2878560;-47
2023/11/28 04:08:39;;;;;;;;;60.00;49.50;;;;;2.97;100.00;97494.63;6313807;20;2855533;-46
2023/11/28 04:11:08;;;;;;;;;62.50;49.50;;;;;2.88;100.00;97485.50;6279096;20;2875313;-44
2023/11/28 04:13:40;;;;;;;;;108.86;88.86;;;;;2.70;100.00;97479.59;6288652;20;2552359;-44
2023/11/28 04:16:16;;;;;;;;;115.67;106.00;;;;;2.86;100.00;97477.63;6312092;20;3691975;-46
2023/11/28 04:18:50;;;;;;;;;98.00;75.33;;;;;2.78;100.00;97474.63;6279284;20;3672193;-44
2023/11/28 04:21:20;;;;;;;;;68.00;52.50;;;;;2.92;100.00;97467.56;6311788;20;2870211;-45
2023/11/28 04:23:50;;;;;;;;;72.33;56.33;;;;;3.07;100.00;97474.50;6276808;20;3639876;-46
2023/11/28 04:26:18;;;;;;;;;51.00;41.00;;;;;3.37;100.00;97468.06;6310985;20;2862819;-49
2023/11/28 04:28:49;;;;;;;;;40.33;33.33;;;;;3.39;100.00;97460.88;6278831;20;2856631;-45
2023/11/28 04:31:20;;;;;;;;;39.67;34.33;;;;;2.85;100.00;97457.38;6310559;20;2864915;-45
2023/11/28 04:33:50;;;;;;;;;52.00;40.50;;;;;3.34;100.00;97463.00;6309509;20;2853453;-47
2023/11/28 04:36:19;;;;;;;;;50.00;39.00;;;;;3.13;100.00;97455.53;6279722;20;2864367;-47
2023/11/28 04:38:49;;;;;;;;;47.67;41.00;;;;;3.39;100.00;97456.41;6310940;20;2858740;-45
2023/11/28 04:41:19;;;;;;;;;45.67;40.67;;;;;3.37;100.00;97454.81;6316776;20;2854510;-45
2023/11/28 04:43:48;;;;;;;;;44.00;37.33;;;;;3.45;100.00;97448.06;6315810;20;2866950;-46
2023/11/28 04:46:17;;;;;;;;;46.50;41.50;;;;;3.14;100.00;97449.28;6317058;20;2869093;-47
2023/11/28 04:48:46;;;;;;;;;65.00;53.00;;;;;3.45;100.00;97439.22;6284191;20;2871072;-45
2023/11/28 04:51:18;;;;;;;;;142.57;121.14;;;;;3.22;100.00;97435.53;6296373;20;2535754;-48
2023/11/28 04:53:47;;;;;;;;;61.50;49.50;;;;;3.05;100.00;97429.56;6282117;20;2852211;-46
2023/11/28 04:56:17;;;;;;;;;59.67;44.67;;;;;2.73;100.00;97421.09;6283192;20;2874496;-46
2023/11/28 04:58:46;;;;;;;;;50.50;41.00;;;;;2.74;100.00;97416.63;6311717;20;2849207;-45
2023/11/28 05:01:15;;;;;;;;;45.33;38.33;;;;;2.59;100.00;97427.31;6284227;20;2856517;-46
2023/11/28 05:03:45;;;;;;;;;43.67;38.00;;;;;2.66;100.00;97419.81;6316525;20;2871220;-45
2023/11/28 05:06:15;;;;;;;;;52.33;41.33;;;;;2.95;100.00;97427.59;6316179;20;2869279;-45
2023/11/28 05:08:44;;;;;;;;;43.50;41.00;;;;;2.99;100.00;97418.50;6315372;20;2847152;-44
2023/11/28 05:11:13;;;;;;;;;58.00;42.67;;;;;2.80;100.00;97414.44;6284087;20;3626318;-46
2023/11/28 05:13:43;;;;;;;;;42.33;38.33;;;;;2.75;100.00;97410.41;6314561;20;3612908;-44
2023/11/28 05:16:13;;;;;;;;;45.00;38.33;;;;;3.17;100.00;97408.47;6315964;20;3597183;-47
2023/11/28 05:18:43;;;;;;;;;54.33;41.00;;;;;2.80;100.00;97401.19;6316808;20;3615908;-45
2023/11/28 05:21:13;;;;;;;;;43.00;31.33;;;;;3.34;100.00;97407.28;6314622;20;3631643;-45
2023/11/28 05:23:44;;;;;;;;;45.50;41.50;;;;;2.92;100.00;97401.31;6315193;20;2848270;-44
2023/11/28 05:26:13;;;;;;;;;44.50;39.00;;;;;2.69;100.00;97390.47;6283880;20;2856522;-47
2023/11/28 05:28:42;;;;;;;;;46.50;37.50;;;;;2.91;100.00;97403.13;6283181;20;2863902;-44
2023/11/28 05:31:11;;;;;;;;;48.50;39.00;;;;;3.19;100.00;97399.44;6282508;20;2847246;-47
2023/11/28 05:33:41;;;;;;;;;52.67;43.00;;;;;2.99;100.00;97389.34;6284291;20;2857847;-44
2023/11/28 05:36:11;;;;;;;;;47.00;39.00;;;;;2.84;100.00;97383.28;6313514;20;2856612;-47
2023/11/28 05:38:41;;;;;;;;;50.67;40.67;;;;;3.07;100.00;97384.38;6314466;20;3624240;-48
2023/11/28 05:41:10;;;;;;;;;47.00;39.00;;;;;3.04;100.00;97393.38;6314349;20;2860789;-46
2023/11/28 05:43:40;;;;;;;;;47.00;39.00;;;;;3.40;100.00;97397.13;6311628;20;3627360;-46
2023/11/28 05:46:09;;;;;;;;;46.50;40.50;;;;;3.38;100.00;97404.34;6315120;20;2855619;-48
2023/11/28 05:48:39;;;;;;;;;48.67;39.00;;;;;3.48;100.00;97392.13;6282546;20;2852465;-45
2023/11/28 05:51:09;;;;;;;;;47.50;41.00;;;;;3.07;100.00;97379.06;6312341;20;2854443;-46
2023/11/28 05:53:42;;;;;;;;;42.00;39.50;;;;;3.19;100.00;97380.91;6284021;20;2849283;-45
2023/11/28 05:56:12;;;;;;;;;54.67;41.33;;;;;3.10;100.00;97381.50;6281912;20;2869030;-48
2023/11/28 05:58:43;;;;;;;;;53.67;42.00;;;;;3.26;100.00;97374.19;6315980;20;2853547;-45
2023/11/28 06:01:16;;;;;;;;;54.67;41.00;;;;;2.53;100.00;97363.31;6313364;20;3616946;-44
2023/11/28 06:03:46;;;;;;;;;50.00;40.00;;;;;2.66;100.00;97363.31;6314892;20;3638803;-46
2023/11/28 06:06:15;;;;;;;;;53.00;44.50;;;;;2.82;100.00;97354.25;6316046;20;2852791;-47
2023/11/28 06:08:44;;;;;;;;;61.00;49.00;;;;;2.82;100.00;97364.00;6283030;20;2856520;-45
2023/11/28 06:11:13;;;;;;;;;61.00;46.00;;;;;2.86;100.00;97366.31;6282219;20;2860833;-46
2023/11/28 06:13:42;;;;;;;;;64.50;49.50;;;;;2.85;100.00;97353.19;6284229;20;2886770;-44
2023/11/28 06:16:13;;;;;;;;;67.67;50.67;;;;;2.86;100.00;97350.41;6282823;20;3640921;-44
2023/11/28 06:18:42;;;;;;;;;50.00;42.00;;;;;2.97;100.00;97349.69;6315594;20;2848325;-44
2023/11/28 06:21:10;;;;;;;;;56.50;47.00;;;;;3.29;100.00;97363.41;6281192;20;2503468;-46
2023/11/28 06:23:40;;;;;;;;;51.33;38.67;;;;;2.76;100.00;97354.66;6280781;20;2875273;-46
2023/11/28 06:26:09;;;;;;;;;44.00;42.00;;;;;2.96;100.00;97348.00;6313457;20;2860738;-46
2023/11/28 06:28:38;;;;;;;;;57.50;45.00;;;;;3.16;100.00;97351.06;6281333;20;2856528;-46
2023/11/28 06:31:07;;;;;;;;;54.00;43.00;;;;;3.01;100.00;97339.75;6283646;20;2866922;-47
2023/11/28 06:33:36;;;;;;;;;61.50;49.50;;;;;2.92;100.00;97345.66;6281403;20;2857532;-46
2023/11/28 06:36:07;;;;;;;;;64.50;53.00;;;;;3.03;100.00;97343.16;6283054;20;2877453;-45
2023/11/28 06:38:37;;;;;;;;;52.33;41.67;;;;;2.90;100.00;97345.78;6281839;20;2873169;-49
2023/11/28 06:41:07;;;;;;;;;54.00;45.00;;;;;3.12;100.00;97350.44;6314430;20;2838916;-54
2023/11/28 06:43:36;;;;;;;;;56.50;45.00;;;;;3.51;100.00;97348.63;6282726;20;2861821;-49
2023/11/28 06:46:05;;;;;;;;;57.00;47.00;;;;;3.05;100.00;97338.56;6279657;20;2500259;-54
2023/11/28 06:48:37;;;;;;;;;64.67;51.00;;;;;3.09;100.00;97334.75;6283225;20;2864949;-51
2023/11/28 06:51:08;;;;;;;;;64.33;50.33;;;;;3.41;100.00;97329.84;6314227;20;3634707;-48
2023/11/28 06:53:38;;;;;;;;;76.67;60.00;;;;;3.05;100.00;97326.19;6314088;20;3633577;-54
2023/11/28 06:56:10;;;;;;;;;73.33;54.00;;;;;3.03;100.00;97333.38;6314028;20;3641946;-52
2023/11/28 06:58:39;;;;;;;;;66.00;51.00;;;;;3.25;100.00;97330.06;6312225;20;2868068;-51
2023/11/28 07:01:09;;;;;;;;;111.67;91.00;;;;;3.51;100.00;97336.19;6281936;20;3689883;-52
2023/11/28 07:03:39;;;;;;;;;80.00;60.00;;;;;3.37;100.00;97335.47;6277070;20;3649213;-50
2023/11/28 07:06:10;;;;;;;;;70.33;56.33;;;;;3.70;100.00;97335.72;6313577;20;2878457;-54
2023/11/28 07:08:41;;;;;;;;;87.00;64.57;;;;;3.82;100.00;97333.16;6333191;20;2903411;-50
2023/11/28 07:11:19;;;;;;;;;77.67;62.00;;;;;3.65;100.00;97323.75;6310757;20;2877451;-50
2023/11/28 07:13:53;;;;;;;;;79.00;58.67;;;;;3.28;100.00;97316.59;6313830;20;3637832;-51
2023/11/28 07:16:23;;;;;;;;;72.00;58.33;;;;;3.02;100.00;97317.56;6307801;20;2871242;-48
2023/11/28 07:18:53;;;;;;;;;66.00;51.00;;;;;3.46;100.00;97318.91;6312682;20;2869154;-53
2023/11/28 07:21:23;;;;;;;;;88.67;66.33;;;;;3.55;100.00;97318.25;6311895;20;3645072;-53
2023/11/28 07:23:52;;;;;;;;;69.00;54.67;;;;;3.30;100.00;97317.34;6312242;20;2879550;-50
2023/11/28 07:26:21;;;;;;;;;53.00;38.00;;;;;3.49;100.00;97321.34;6313795;20;2887773;-50
2023/11/28 07:28:49;;;;;;;;;61.00;48.50;;;;;3.27;100.00;97314.91;6277905;20;2495069;-52
2023/11/28 07:31:17;;;;;;;;;55.50;46.00;;;;;3.34;100.00;97311.81;6278481;20;2497153;-48
2023/11/28 07:33:46;;;;;;;;;60.50;46.50;;;;;3.68;100.00;97310.28;6282006;20;2871073;-51
2023/11/28 07:36:16;;;;;;;;;64.00;51.00;;;;;3.49;100.00;97316.03;6281908;20;2881503;-53
2023/11/28 07:38:45;;;;;;;;;65.00;52.00;;;;;3.16;100.00;97298.03;6313112;20;2760692;-48
2023/11/28 07:41:14;;;;;;;;;58.00;48.00;;;;;3.24;100.00;97307.19;6275224;20;2500307;-43
2023/11/28 07:43:44;;;;;;;;;64.00;52.00;;;;;3.40;100.00;97306.09;6281305;20;2851353;-43
2023/11/28 07:46:14;;;;;;;;;98.33;88.33;;;;;3.39;100.00;97297.28;6282812;20;3647163;-43
2023/11/28 07:49:02;;;;;;;;;85.67;67.33;;;;;3.68;100.00;97295.19;6311161;20;3643162;-44
2023/11/28 07:51:32;;;;;;;;;86.00;67.00;;;;;3.81;100.00;97296.97;6311489;20;3529466;-46
2023/11/28 07:54:02;;;;;;;;;74.67;57.67;;;;;4.03;100.00;97289.13;6307915;20;2879417;-42
2023/11/28 07:56:32;;;;;;;;;72.67;56.67;;;;;3.79;100.00;97285.59;6311055;20;2877345;-44
2023/11/28 07:59:02;;;;;;;;;73.00;56.33;;;;;3.83;100.00;97282.63;6313378;20;3631569;-44
2023/11/28 08:01:32;;;;;;;;;74.00;58.67;;;;;3.90;100.00;97281.22;6309575;20;2883709;-43
2023/11/28 08:04:01;;;;;;;;;66.00;53.00;;;;;4.02;100.00;97282.13;6311538;20;2858620;-45
2023/11/28 08:06:31;;;;;;;;;78.67;59.00;;;;;3.55;100.00;97281.09;6278487;20;3653369;-42
2023/11/28 08:09:00;;;;;;;;;75.00;58.00;;;;;3.42;100.00;97280.28;6309042;20;2882588;-44
2023/11/28 08:11:30;;;;;;;;;77.67;58.00;;;;;3.61;100.00;97282.50;6311118;20;3643063;-44
2023/11/28 08:14:00;;;;;;;;;70.67;54.00;;;;;3.57;100.00;97281.00;6313311;20;2873352;-45
2023/11/28 08:16:29;;;;;;;;;67.00;51.67;;;;;3.65;100.00;97281.31;6314617;20;2878482;-44
2023/11/28 08:18:59;;;;;;;;;69.33;50.00;;;;;3.91;100.00;97276.75;6316145;20;3633590;-43
2023/11/28 08:21:29;;;;;;;;;64.00;52.50;;;;;4.21;100.00;97281.59;6316540;20;2857560;-43
2023/11/28 08:24:00;;;;;;;;;67.00;51.33;;;;;4.38;100.00;97272.38;6284345;20;3630453;-43
2023/11/28 08:26:30;;;;;;;;;70.00;53.67;;;;;4.08;100.00;97276.38;6317893;20;3641941;-43
2023/11/28 08:28:59;;;;;;;;;73.00;52.67;;;;;3.54;100.00;97266.16;6316459;20;2887779;-42
2023/11/28 08:31:29;;;;;;;;;79.67;61.00;;;;;3.80;100.00;97271.41;6316969;20;3632628;-44
2023/11/28 08:34:00;;;;;;;;;116.75;103.25;;;;;4.01;100.00;97259.19;6315925;20;3709675;-43
2023/11/28 08:36:30;;;;;;;;;158.00;138.50;;;;;4.13;100.00;97270.69;6285702;20;4484579;-43
2023/11/28 08:39:00;;;;;;;;;92.00;76.00;;;;;4.20;100.00;97263.13;6286646;20;3655552;-42
2023/11/28 08:41:30;;;;;;;;;70.67;54.67;;;;;4.53;100.00;97260.59;6283992;20;2880546;-44
2023/11/28 08:44:00;;;;;;;;;79.00;59.00;;;;;4.53;100.00;97265.03;6307564;20;3631595;-43
2023/11/28 08:46:30;;;;;;;;;84.33;62.33;;;;;4.35;100.00;97262.00;6307261;20;3650400;-44
2023/11/28 08:49:00;;;;;;;;;84.67;62.33;;;;;4.24;100.00;97259.28;6306884;20;3630472;-42
2023/11/28 08:51:30;;;;;;;;;81.33;62.67;;;;;4.43;100.00;97248.13;6305848;20;3646172;-43
2023/11/28 08:54:00;;;;;;;;;79.00;60.33;;;;;4.39;100.00;97255.47;6307464;20;3642988;-43
2023/11/28 08:56:29;;;;;;;;;68.67;47.00;;;;;4.28;100.00;97244.81;6307544;20;2878458;-43
2023/11/28 08:58:59;;;;;;;;;60.00;48.50;;;;;4.29;100.00;97233.22;6309413;20;2862775;-42
2023/11/28 09:01:28;;;;;;;;;60.67;48.00;;;;;4.47;100.00;97231.81;6275674;20;2871215;-44
2023/11/28 09:04:00;;;;;;;;;68.00;53.67;;;;;4.30;100.00;97227.81;6310624;20;2881995;-46
2023/11/28 09:06:29;;;;;;;;;66.50;53.50;;;;;4.58;100.00;97215.03;6308367;20;2872148;-44
2023/11/28 09:08:59;;;;;;;;;72.67;56.00;;;;;4.74;100.00;97214.72;6279260;20;2874616;-43
2023/11/28 09:11:29;;;;;;;;;69.00;57.00;;;;;4.73;100.00;97213.03;6307034;20;2861849;-43
2023/11/28 09:13:58;;;;;;;;;75.67;58.00;;;;;4.43;100.00;97214.44;6276149;20;3638806;-43
2023/11/28 09:16:27;;;;;;;;;64.00;52.50;;;;;4.40;100.00;97212.03;6308835;20;2870080;-44
2023/11/28 09:18:57;;;;;;;;;70.33;56.67;;;;;4.67;100.00;97209.03;6276513;20;2875374;-43
2023/11/28 09:21:27;;;;;;;;;80.67;59.33;;;;;4.90;100.00;97195.75;6309405;20;3644067;-44
2023/11/28 09:23:57;;;;;;;;;79.00;61.00;;;;;4.65;100.00;97199.50;6307931;20;3633637;-48
2023/11/28 09:26:26;;;;;;;;;72.33;56.33;;;;;4.76;100.00;97195.03;6307184;20;3632626;-45
2023/11/28 09:28:57;;;;;;;;;74.00;55.00;;;;;4.78;100.00;97192.25;6309181;20;3648275;-46
2023/11/28 09:31:28;;;;;;;;;67.00;52.67;;;;;4.75;100.00;97195.16;6307347;20;2874340;-45
2023/11/28 09:33:58;;;;;;;;;70.33;52.00;;;;;4.80;100.00;97193.81;6307445;20;3634832;-43
2023/11/28 09:36:28;;;;;;;;;71.67;51.00;;;;;4.91;100.00;97190.31;6307810;20;3652355;-44
2023/11/28 09:39:03;;;;;;;;;68.67;53.67;;;;;4.83;100.00;97190.09;6307691;20;3638275;-43
2023/11/28 09:41:35;;;;;;;;;50.33;39.00;;;;;4.76;100.00;97191.53;6306775;20;2866931;-44
2023/11/28 09:44:17;;;;;;;;;67.67;52.67;;;;;4.80;100.00;97182.34;6306736;20;2877535;-45
2023/11/28 09:46:51;;;;;;;;;71.33;52.33;;;;;4.79;100.00;97176.19;6306243;20;3632637;-45
2023/11/28 09:49:23;;;;;;;;;69.33;53.67;;;;;4.75;100.00;97173.91;6307224;20;2886870;-45
2023/11/28 09:51:56;;;;;;;;;64.50;52.00;;;;;4.63;100.00;97170.38;6303095;20;2865898;-43
2023/11/28 09:54:28;;;;;;;;;74.67;59.00;;;;;4.91;100.00;97163.72;6272764;20;2875382;-44
2023/11/28 09:57:01;;;;;;;;;71.67;54.67;;;;;4.68;100.00;97149.59;6304036;20;3637744;-43
2023/11/28 09:59:31;;;;;;;;;65.33;48.00;;;;;4.52;100.00;97160.56;6307187;20;2871113;-43
2023/11/28 10:02:03;;;;;;;;;61.00;50.50;;;;;5.01;100.00;97147.91;6305625;20;2862790;-46
2023/11/28 10:04:34;;;;;;;;;61.33;45.33;;;;;5.04;100.00;97150.31;6273312;20;3621118;-43
2023/11/28 10:07:06;;;;;;;;;63.33;51.33;;;;;5.03;100.00;97133.53;6308030;20;2873279;-46
2023/11/28 10:09:36;;;;;;;;;62.00;47.33;;;;;5.30;100.00;97129.59;6305417;20;2875361;-44
2023/11/28 10:12:06;;;;;;;;;63.00;48.33;;;;;5.20;100.00;97131.31;6306477;20;3621198;-43
2023/11/28 10:14:39;;;;;;;;;64.67;50.33;;;;;5.14;100.00;97126.50;6305378;20;2879546;-44
2023/11/28 10:17:11;;;;;;;;;61.67;48.00;;;;;5.28;100.00;97129.72;6307231;20;2885897;-46
2023/11/28 10:19:45;;;;;;;;;64.00;53.00;;;;;5.26;100.00;97120.16;6307389;20;2870089;-45
2023/11/28 10:22:15;;;;;;;;;64.33;51.33;;;;;5.34;100.00;97123.03;6274077;20;2861770;-43
2023/11/28 10:24:46;;;;;;;;;69.67;53.33;;;;;5.28;100.00;97113.75;6307557;20;3626317;-45
2023/11/28 10:27:18;;;;;;;;;66.00;50.00;;;;;5.47;100.00;97112.25;6304496;20;3638889;-45
2023/11/28 10:29:48;;;;;;;;;56.00;44.00;;;;;5.54;100.00;97101.94;6307059;20;3607671;-43
2023/11/28 10:32:17;;;;;;;;;57.00;45.00;;;;;5.38;100.00;97116.50;6304623;20;2850321;-44
2023/11/28 10:35:06;;;;;;;;;58.00;46.67;;;;;5.65;100.00;97108.06;6277308;20;2854475;-45
2023/11/28 10:37:38;;;;;;;;;83.67;65.00;;;;;5.11;100.00;97116.94;6303640;20;3643147;-44
2023/11/28 10:40:14;;;;;;;;;70.67;57.00;;;;;5.53;100.00;97116.22;6305509;20;3629473;-46
2023/11/28 10:42:44;;;;;;;;;80.67;59.67;;;;;5.48;100.00;97109.47;6272516;20;3638837;-46
2023/11/28 10:45:16;;;;;;;;;64.33;52.00;;;;;5.46;100.00;97103.41;6306122;20;2866984;-45
2023/11/28 10:47:46;;;;;;;;;78.33;60.00;;;;;5.49;100.00;97110.31;6307995;20;3635086;-46
2023/11/28 10:50:17;;;;;;;;;75.67;55.33;;;;;5.70;100.00;97110.34;6306586;20;3649319;-52
2023/11/28 10:52:48;;;;;;;;;65.67;50.33;;;;;5.68;100.00;97104.28;6302198;20;3634661;-45
2023/11/28 10:55:24;;;;;;;;;70.33;52.00;;;;;5.45;100.00;97104.41;6303532;20;3639864;-45
2023/11/28 10:58:02;;;;;;;;;57.00;46.00;;;;;5.65;100.00;97108.06;6300492;20;2873240;-46
2023/11/28 11:00:38;;;;;;;;;54.33;42.33;;;;;5.61;100.00;97106.63;6271221;20;2862901;-49
2023/11/28 11:03:10;;;;;;;;;57.00;46.00;;;;;5.79;100.00;97103.41;6297736;20;2865451;-46
2023/11/28 11:05:43;;;;;;;;;47.67;40.33;;;;;5.58;100.00;97100.72;6303293;20;2858127;-49
2023/11/28 11:08:13;;;;;;;;;50.00;38.33;;;;;5.48;100.00;97101.47;6301715;20;3627410;-45
2023/11/28 11:10:42;;;;;;;;;50.50;40.50;;;;;5.55;100.00;97108.94;6268018;20;2531534;-48
2023/11/28 11:13:52;;;;;;;;;53.00;41.00;;;;;5.38;100.00;97105.88;6266261;20;2864866;-47
2023/11/28 11:16:41;;;;;;;;;52.00;41.00;;;;;5.40;100.00;97106.59;6272957;20;2834660;-48